createdAt,value
2023-02-19T00:00:02.192Z,296.23900000000003
2023-02-19T00:05:02.265Z,290.14
2023-02-19T00:10:02.166Z,186.691
2023-02-19T00:15:02.169Z,180.609
2023-02-19T00:20:02.236Z,184.198
2023-02-19T00:25:02.253Z,158.02700000000002
2023-02-19T00:30:02.333Z,157.948
2023-02-19T00:35:02.266Z,1729.637
2023-02-19T00:40:02.303Z,2246.477
2023-02-19T00:45:02.417Z,1899.665
2023-02-19T00:50:02.262Z,2318.531
2023-02-19T00:55:02.265Z,2264.1910000000003
2023-02-19T01:00:02.327Z,2254.407
2023-02-19T01:05:02.272Z,2283.37
2023-02-19T01:10:02.244Z,2635.472
2023-02-19T01:15:02.256Z,1613.488
2023-02-19T01:20:02.285Z,194.018
2023-02-19T01:25:02.252Z,203.639
2023-02-19T01:30:02.392Z,302.879
2023-02-19T01:35:02.325Z,293.832
2023-02-19T01:40:02.267Z,281.72
2023-02-19T01:45:02.246Z,175.625
2023-02-19T01:50:02.283Z,168.625
2023-02-19T01:55:02.295Z,578.461
2023-02-19T02:00:02.282Z,2169.929
2023-02-19T02:05:02.256Z,2164.544
2023-02-19T02:10:02.414Z,2188.438
2023-02-19T02:15:02.304Z,2293.971
2023-02-19T02:20:02.286Z,1854.387
2023-02-19T02:25:02.317Z,2375.569
2023-02-19T02:30:02.379Z,449.374
2023-02-19T02:35:02.260Z,182.95600000000002
2023-02-19T02:40:02.316Z,181.811
2023-02-19T02:45:02.308Z,181.618
2023-02-19T02:50:02.339Z,186.482
2023-02-19T02:55:02.771Z,158.372
2023-02-19T03:00:02.470Z,1479.761
2023-02-19T03:05:02.350Z,2299.4
2023-02-19T03:10:02.398Z,2297.046
2023-02-19T03:15:02.287Z,2286.355
2023-02-19T03:20:02.247Z,2231.532
2023-02-19T03:25:02.350Z,2427.092
2023-02-19T03:30:02.323Z,2460.065
2023-02-19T03:35:02.315Z,182.148
2023-02-19T03:40:02.233Z,192.846
2023-02-19T03:45:02.313Z,193.90800000000002
2023-02-19T03:50:02.300Z,308.649
2023-02-19T03:55:02.260Z,297.995
2023-02-19T04:00:02.305Z,291.72700000000003
2023-02-19T04:05:02.308Z,1546.069
2023-02-19T04:10:02.263Z,2206.453
2023-02-19T04:15:02.349Z,2211.911
2023-02-19T04:20:02.360Z,1727.295
2023-02-19T04:25:02.369Z,2224.98
2023-02-19T04:30:02.427Z,2237.79
2023-02-19T04:35:02.296Z,2299.849
2023-02-19T04:40:02.446Z,1661.457
2023-02-19T04:45:02.325Z,270.26300000000003
2023-02-19T04:50:02.273Z,246.31900000000002
2023-02-19T04:55:02.307Z,155.986
2023-02-19T05:00:02.351Z,157.279
2023-02-19T05:05:02.313Z,187.215
2023-02-19T05:10:02.280Z,182.169
2023-02-19T05:15:02.365Z,1579.209
2023-02-19T05:20:02.420Z,2216.98
2023-02-19T05:25:02.345Z,2328.571
2023-02-19T05:30:02.769Z,2331.703
2023-02-19T05:35:02.350Z,2347.858
2023-02-19T05:40:02.434Z,2390.375
2023-02-19T05:45:02.362Z,2025.962
2023-02-19T05:50:02.346Z,2936.7400000000002
2023-02-19T05:55:02.386Z,784.266
2023-02-19T06:00:02.453Z,156.347
2023-02-19T06:05:02.375Z,156.275
2023-02-19T06:10:02.372Z,849.092
2023-02-19T06:15:02.473Z,2372.0370000000003
2023-02-19T06:20:02.413Z,2368.907
2023-02-19T06:25:02.518Z,2379.9610000000002
2023-02-19T06:30:02.417Z,1900.1860000000001
2023-02-19T06:35:02.382Z,181.56300000000002
2023-02-19T06:40:02.416Z,181.479
2023-02-19T06:45:02.411Z,182.71
2023-02-19T06:50:02.387Z,201.446
2023-02-19T06:55:02.444Z,163.171
2023-02-19T07:00:02.696Z,190.288
2023-02-19T07:05:02.509Z,2159.569
2023-02-19T07:10:02.491Z,2301.756
2023-02-19T07:15:02.474Z,2286.558
2023-02-19T07:20:02.495Z,2225.19
2023-02-19T07:25:02.766Z,2243.9610000000002
2023-02-19T07:30:02.534Z,566.451
2023-02-19T07:35:02.442Z,160.226
2023-02-19T07:40:02.475Z,184.665
2023-02-19T07:45:02.486Z,186.17000000000002
2023-02-19T07:50:02.540Z,281.476
2023-02-19T07:55:02.496Z,301.799
2023-02-19T08:00:02.530Z,289.587
2023-02-19T08:05:02.506Z,1254.357
2023-02-19T08:10:02.482Z,2196.304
2023-02-19T08:15:02.472Z,2192.428
2023-02-19T08:20:02.490Z,2211.1730000000002
2023-02-19T08:25:02.475Z,2244.703
2023-02-19T08:30:02.592Z,2271.7000000000003
2023-02-19T08:35:02.504Z,2641.464
2023-02-19T08:40:02.601Z,1801.7730000000001
2023-02-19T08:45:02.466Z,309.098
2023-02-19T08:50:02.522Z,277.32800000000003
2023-02-19T08:55:02.458Z,201.538
2023-02-19T09:00:02.842Z,197.15800000000002
2023-02-19T09:05:02.496Z,192.173
2023-02-19T09:10:02.528Z,194.91
2023-02-19T09:15:02.493Z,194.514
2023-02-19T09:20:02.510Z,194.633
2023-02-19T09:25:02.551Z,290.994
2023-02-19T09:30:02.629Z,1047.486
2023-02-19T09:35:02.599Z,2312.143
2023-02-19T09:40:02.570Z,2223.438
2023-02-19T09:45:02.575Z,2235.664
2023-02-19T09:50:02.662Z,1429.0910000000001
2023-02-19T09:55:02.565Z,166.31300000000002
2023-02-19T10:00:02.624Z,162.263
2023-02-19T10:05:02.685Z,167.717
2023-02-19T10:10:02.618Z,215.774
2023-02-19T10:15:02.644Z,311.115
2023-02-19T10:20:02.765Z,300.507
2023-02-19T10:25:02.766Z,251.556
2023-02-19T10:30:02.809Z,194.8
2023-02-19T10:35:02.768Z,167.698
2023-02-19T10:40:02.699Z,586.428
2023-02-19T10:45:02.767Z,2183.906
2023-02-19T10:50:04.560Z,2184.377
2023-02-19T10:55:02.743Z,2215.57
2023-02-19T11:00:02.794Z,2649.957
2023-02-19T11:05:02.808Z,2171.418
2023-02-19T11:10:02.737Z,294.011
2023-02-19T11:15:02.740Z,220.255
2023-02-19T11:20:02.732Z,213.811
2023-02-19T11:25:02.726Z,211.276
2023-02-19T11:30:02.857Z,206.54500000000002
2023-02-19T11:35:02.745Z,202.579
2023-02-19T11:40:02.747Z,199.68800000000002
2023-02-19T11:45:02.799Z,260.451
2023-02-19T11:50:02.840Z,314.294
2023-02-19T11:55:02.802Z,303.486
2023-02-19T12:00:02.838Z,230.674
2023-02-19T12:05:02.857Z,177.742
2023-02-19T12:10:02.821Z,266.938
2023-02-19T12:15:02.857Z,2147.418
2023-02-19T12:20:01.068Z,2161.485
2023-02-19T12:25:01.075Z,2181.675
2023-02-19T12:30:01.109Z,1982.039
2023-02-19T12:35:01.070Z,284.53000000000003
2023-02-19T12:40:01.309Z,289.395
2023-02-19T12:45:01.067Z,308.939
2023-02-19T12:50:01.112Z,212.716
2023-02-19T12:55:01.204Z,201.496
2023-02-19T13:00:01.089Z,200.476
2023-02-19T13:05:01.347Z,199.167
2023-02-19T13:25:01.565Z,291.698
2023-02-19T13:30:01.262Z,812.0550000000001
2023-02-19T13:35:01.209Z,2271.457
2023-02-19T13:40:01.271Z,2076.039
2023-02-19T13:45:01.353Z,2244.08
2023-02-19T13:50:01.294Z,2374.958
2023-02-19T13:55:01.384Z,2829.579
2023-02-19T14:00:01.574Z,344.302
2023-02-19T14:05:01.309Z,199.543
2023-02-19T14:10:01.414Z,314.055
2023-02-19T14:15:01.319Z,304.407
2023-02-19T14:20:01.362Z,263.178
2023-02-19T14:25:01.329Z,166.883
2023-02-19T14:30:01.406Z,167.261
2023-02-19T14:35:01.383Z,165.436
2023-02-19T14:40:01.186Z,166.806
2023-02-19T14:45:01.399Z,164.441
2023-02-19T14:50:01.201Z,162.98
2023-02-19T14:55:01.281Z,250.025
2023-02-19T15:00:01.231Z,280.627
2023-02-19T15:05:01.208Z,2107.465
2023-02-19T15:10:03.696Z,2235.561
2023-02-19T15:15:01.163Z,2211.542
2023-02-19T15:20:01.213Z,2377.329
2023-02-19T15:25:01.183Z,2822.56
2023-02-19T15:30:01.340Z,201.552
2023-02-19T15:35:01.251Z,157.911
2023-02-19T15:40:01.233Z,178.195
2023-02-19T15:45:01.256Z,278.419
2023-02-19T15:50:01.233Z,269.832
2023-02-19T15:55:01.276Z,257.311
2023-02-19T16:00:01.424Z,194.785
2023-02-19T16:05:01.282Z,196.909
2023-02-19T16:10:01.238Z,196.504
2023-02-19T16:15:01.206Z,187.997
2023-02-19T16:20:01.351Z,184.001
2023-02-19T16:25:01.232Z,838.46
2023-02-19T16:30:01.360Z,2263.751
2023-02-19T16:35:01.320Z,2133.833
2023-02-19T16:40:01.312Z,2290.3250000000003
2023-02-19T16:45:01.307Z,2219.064
2023-02-19T16:50:01.302Z,1370.406
2023-02-19T16:55:01.304Z,156.238
2023-02-19T17:00:01.385Z,156.418
2023-02-19T17:05:01.276Z,156.5
2023-02-19T17:10:01.265Z,156.589
2023-02-19T17:15:01.333Z,197.995
2023-02-19T17:20:01.338Z,275.003
2023-02-19T17:25:01.343Z,279.587
2023-02-19T17:30:01.391Z,246.09900000000002
2023-02-19T17:35:01.366Z,181.143
2023-02-19T17:40:01.397Z,1687.828
2023-02-19T17:45:01.329Z,2171.852
2023-02-19T17:50:01.628Z,2174.59
2023-02-19T17:55:01.335Z,2197.455
2023-02-19T18:00:01.401Z,2478.37
2023-02-19T18:05:01.357Z,2302.4030000000002
2023-02-19T18:10:01.380Z,273.279
2023-02-19T18:15:01.372Z,267.154
2023-02-19T18:20:01.589Z,158.942
2023-02-19T18:25:01.377Z,158.752
2023-02-19T18:30:01.415Z,190.261
2023-02-19T18:35:01.333Z,194.76500000000001
2023-02-19T18:40:01.363Z,194.887
2023-02-19T18:45:01.571Z,190.679
2023-02-19T18:50:01.598Z,260.507
2023-02-19T18:55:01.513Z,1466.912
2023-02-19T19:00:01.423Z,2287.051
2023-02-19T19:05:01.653Z,2049.913
2023-02-19T19:10:01.637Z,2217.907
2023-02-19T19:15:01.633Z,2208.117
2023-02-19T19:20:01.621Z,1262.445
2023-02-19T19:25:01.823Z,158.092
2023-02-19T19:30:01.679Z,158.368
2023-02-19T19:35:01.610Z,168.405
2023-02-19T19:40:01.575Z,278.982
2023-02-19T19:45:01.629Z,271.699
2023-02-19T19:50:01.604Z,254.774
2023-02-19T19:55:01.656Z,158.195
2023-02-19T20:00:01.643Z,971.033
2023-02-19T20:05:01.661Z,2189.702
2023-02-19T20:10:01.620Z,2194.828
2023-02-19T20:15:01.590Z,2213.628
2023-02-19T20:20:01.585Z,2238.919
2023-02-19T20:25:01.663Z,2712.419
2023-02-19T20:30:02.047Z,1632.1380000000001
2023-02-19T20:35:01.632Z,269.228
2023-02-19T20:40:01.611Z,198.49
2023-02-19T20:45:01.674Z,159.27100000000002
2023-02-19T20:50:01.647Z,158.917
2023-02-19T20:55:01.621Z,158.66400000000002
2023-02-19T21:00:01.661Z,158.82500000000002
2023-02-19T21:05:01.626Z,257.628
2023-02-19T21:10:01.622Z,2223.494
2023-02-19T21:15:01.721Z,2087.305
2023-02-19T21:20:01.601Z,2337.267
2023-02-19T21:25:01.631Z,2320.4610000000002
2023-02-19T21:30:01.621Z,2250.379
2023-02-19T21:35:01.847Z,1181.6970000000001
2023-02-19T21:40:01.616Z,182.48
2023-02-19T21:45:01.521Z,181.894
2023-02-19T21:50:01.544Z,163.225
2023-02-19T21:55:01.512Z,158.062
2023-02-19T22:00:01.728Z,242.079
2023-02-19T22:05:01.604Z,275.43
2023-02-19T22:10:01.544Z,269.408
2023-02-19T22:15:01.681Z,1125.709
2023-02-19T22:20:01.665Z,2184.39
2023-02-19T22:25:01.591Z,2193.809
2023-02-19T22:30:01.620Z,2215.007
2023-02-19T22:35:01.589Z,2239.881
2023-02-19T22:40:01.608Z,2661.0170000000003
2023-02-19T22:45:01.602Z,1415.184
2023-02-19T22:50:01.658Z,305.081
2023-02-19T22:55:01.642Z,296.563
2023-02-19T23:00:01.652Z,268.592
2023-02-19T23:05:01.668Z,168.38400000000001
2023-02-19T23:10:01.610Z,160.475
2023-02-19T23:15:01.619Z,160.169
2023-02-19T23:20:01.712Z,160.864
2023-02-19T23:25:01.571Z,161.31
2023-02-19T23:30:01.715Z,160.491
2023-02-19T23:35:01.587Z,1640.453
2023-02-19T23:40:01.670Z,2063.474
2023-02-19T23:45:01.656Z,2330.619
2023-02-19T23:50:01.649Z,2280.16
2023-02-19T23:55:02.094Z,2265.098
